sensor_id;sensor_type;location;lat;lon;timestamp;temperature;humidity
65044;DHT22;51617;48.158;16.464;2023-06-14T00:01:18;17.10;84.60
65044;DHT22;51617;48.158;16.464;2023-06-14T00:03:45;17.10;84.80
65044;DHT22;51617;48.158;16.464;2023-06-14T00:06:13;17.10;85.10
65044;DHT22;51617;48.158;16.464;2023-06-14T00:08:38;17.00;85.30
65044;DHT22;51617;48.158;16.464;2023-06-14T00:11:05;17.00;85.60
65044;DHT22;51617;48.158;16.464;2023-06-14T00:13:31;17.00;85.80
65044;DHT22;51617;48.158;16.464;2023-06-14T00:15:57;16.90;86.10
65044;DHT22;51617;48.158;16.464;2023-06-14T00:18:23;16.90;86.50
65044;DHT22;51617;48.158;16.464;2023-06-14T00:20:55;16.80;86.80
65044;DHT22;51617;48.158;16.464;2023-06-14T00:23:21;16.80;87.10
65044;DHT22;51617;48.158;16.464;2023-06-14T00:25:47;16.80;87.20
65044;DHT22;51617;48.158;16.464;2023-06-14T00:28:13;16.70;87.60
65044;DHT22;51617;48.158;16.464;2023-06-14T00:30:39;16.70;87.70
65044;DHT22;51617;48.158;16.464;2023-06-14T00:33:05;16.70;87.90
65044;DHT22;51617;48.158;16.464;2023-06-14T00:35:30;16.70;88.10
65044;DHT22;51617;48.158;16.464;2023-06-14T00:37:56;16.70;88.20
65044;DHT22;51617;48.158;16.464;2023-06-14T00:40:22;16.70;88.30
65044;DHT22;51617;48.158;16.464;2023-06-14T00:42:48;16.70;88.40
65044;DHT22;51617;48.158;16.464;2023-06-14T00:45:13;16.70;88.60
65044;DHT22;51617;48.158;16.464;2023-06-14T00:47:41;16.60;88.80
65044;DHT22;51617;48.158;16.464;2023-06-14T00:50:09;16.60;88.90
65044;DHT22;51617;48.158;16.464;2023-06-14T00:52:35;16.60;89.00
65044;DHT22;51617;48.158;16.464;2023-06-14T00:55:01;16.60;89.20
65044;DHT22;51617;48.158;16.464;2023-06-14T00:57:27;16.60;89.30
65044;DHT22;51617;48.158;16.464;2023-06-14T00:59:55;16.60;90.00
65044;DHT22;51617;48.158;16.464;2023-06-14T01:02:21;16.60;89.60
65044;DHT22;51617;48.158;16.464;2023-06-14T01:04:48;16.50;90.00
65044;DHT22;51617;48.158;16.464;2023-06-14T01:10:52;16.30;90.70
65044;DHT22;51617;48.158;16.464;2023-06-14T01:13:21;16.20;90.90
65044;DHT22;51617;48.158;16.464;2023-06-14T01:15:50;16.10;91.00
65044;DHT22;51617;48.158;16.464;2023-06-14T01:18:17;16.10;91.00
65044;DHT22;51617;48.158;16.464;2023-06-14T01:20:44;16.10;91.00
65044;DHT22;51617;48.158;16.464;2023-06-14T01:23:19;16.20;90.90
65044;DHT22;51617;48.158;16.464;2023-06-14T01:25:45;16.30;90.90
65044;DHT22;51617;48.158;16.464;2023-06-14T01:28:13;16.30;90.90
65044;DHT22;51617;48.158;16.464;2023-06-14T01:30:45;16.30;91.00
65044;DHT22;51617;48.158;16.464;2023-06-14T01:33:16;16.30;91.30
65044;DHT22;51617;48.158;16.464;2023-06-14T01:35:44;16.10;91.40
65044;DHT22;51617;48.158;16.464;2023-06-14T01:38:12;16.10;91.50
65044;DHT22;51617;48.158;16.464;2023-06-14T01:40:39;16.00;91.50
65044;DHT22;51617;48.158;16.464;2023-06-14T01:43:05;16.00;91.80
65044;DHT22;51617;48.158;16.464;2023-06-14T01:45:33;16.00;92.00
65044;DHT22;51617;48.158;16.464;2023-06-14T01:47:59;15.90;92.20
65044;DHT22;51617;48.158;16.464;2023-06-14T01:50:31;15.80;92.30
65044;DHT22;51617;48.158;16.464;2023-06-14T01:52:58;15.80;92.50
65044;DHT22;51617;48.158;16.464;2023-06-14T01:55:23;15.80;92.50
65044;DHT22;51617;48.158;16.464;2023-06-14T01:57:53;15.90;92.60
65044;DHT22;51617;48.158;16.464;2023-06-14T02:00:19;15.90;92.40
65044;DHT22;51617;48.158;16.464;2023-06-14T02:02:45;15.90;92.50
65044;DHT22;51617;48.158;16.464;2023-06-14T02:05:11;16.00;92.60
65044;DHT22;51617;48.158;16.464;2023-06-14T02:07:37;15.90;93.00
65044;DHT22;51617;48.158;16.464;2023-06-14T02:10:04;15.70;93.50
65044;DHT22;51617;48.158;16.464;2023-06-14T02:12:30;15.70;93.20
65044;DHT22;51617;48.158;16.464;2023-06-14T02:14:56;15.80;93.00
65044;DHT22;51617;48.158;16.464;2023-06-14T02:17:22;15.80;93.00
65044;DHT22;51617;48.158;16.464;2023-06-14T02:19:48;15.90;92.90
65044;DHT22;51617;48.158;16.464;2023-06-14T02:22:15;15.90;92.90
65044;DHT22;51617;48.158;16.464;2023-06-14T02:24:41;15.90;92.80
65044;DHT22;51617;48.158;16.464;2023-06-14T02:27:07;15.90;93.20
65044;DHT22;51617;48.158;16.464;2023-06-14T02:29:35;15.90;93.10
65044;DHT22;51617;48.158;16.464;2023-06-14T02:32:02;15.90;93.10
65044;DHT22;51617;48.158;16.464;2023-06-14T02:34:27;15.90;93.00
65044;DHT22;51617;48.158;16.464;2023-06-14T02:36:53;15.90;92.80
65044;DHT22;51617;48.158;16.464;2023-06-14T02:39:19;15.90;92.70
65044;DHT22;51617;48.158;16.464;2023-06-14T02:41:46;16.00;92.60
65044;DHT22;51617;48.158;16.464;2023-06-14T02:44:13;16.10;92.60
65044;DHT22;51617;48.158;16.464;2023-06-14T02:46:40;16.10;92.50
65044;DHT22;51617;48.158;16.464;2023-06-14T02:49:06;16.10;92.40
65044;DHT22;51617;48.158;16.464;2023-06-14T02:51:32;16.10;92.50
65044;DHT22;51617;48.158;16.464;2023-06-14T02:53:57;16.10;92.50
65044;DHT22;51617;48.158;16.464;2023-06-14T02:56:23;16.10;92.50
65044;DHT22;51617;48.158;16.464;2023-06-14T02:58:49;16.10;92.40
65044;DHT22;51617;48.158;16.464;2023-06-14T03:01:14;16.10;92.30
65044;DHT22;51617;48.158;16.464;2023-06-14T03:03:40;16.20;92.30
65044;DHT22;51617;48.158;16.464;2023-06-14T03:06:06;16.20;92.30
65044;DHT22;51617;48.158;16.464;2023-06-14T03:08:33;16.20;92.40
65044;DHT22;51617;48.158;16.464;2023-06-14T03:11:04;16.10;92.40
65044;DHT22;51617;48.158;16.464;2023-06-14T03:13:36;16.20;92.40
65044;DHT22;51617;48.158;16.464;2023-06-14T03:16:02;16.20;92.50
65044;DHT22;51617;48.158;16.464;2023-06-14T03:18:31;16.10;92.80
65044;DHT22;51617;48.158;16.464;2023-06-14T03:21:01;16.10;92.60
65044;DHT22;51617;48.158;16.464;2023-06-14T03:23:27;16.10;92.50
65044;DHT22;51617;48.158;16.464;2023-06-14T03:25:53;16.10;92.70
65044;DHT22;51617;48.158;16.464;2023-06-14T03:28:18;16.20;92.50
65044;DHT22;51617;48.158;16.464;2023-06-14T03:30:44;16.20;92.30
65044;DHT22;51617;48.158;16.464;2023-06-14T03:33:10;16.30;92.10
65044;DHT22;51617;48.158;16.464;2023-06-14T03:35:36;16.30;92.50
65044;DHT22;51617;48.158;16.464;2023-06-14T03:38:01;16.20;92.90
65044;DHT22;51617;48.158;16.464;2023-06-14T03:40:29;16.00;93.10
65044;DHT22;51617;48.158;16.464;2023-06-14T03:42:54;16.00;93.20
65044;DHT22;51617;48.158;16.464;2023-06-14T03:45:21;16.10;93.20
65044;DHT22;51617;48.158;16.464;2023-06-14T03:47:46;16.10;93.50
65044;DHT22;51617;48.158;16.464;2023-06-14T03:50:12;16.00;93.70
65044;DHT22;51617;48.158;16.464;2023-06-14T03:52:38;16.00;94.10
65044;DHT22;51617;48.158;16.464;2023-06-14T03:55:04;15.90;94.30
65044;DHT22;51617;48.158;16.464;2023-06-14T03:57:30;15.90;94.20
65044;DHT22;51617;48.158;16.464;2023-06-14T03:59:56;16.00;94.00
65044;DHT22;51617;48.158;16.464;2023-06-14T04:02:22;16.10;93.90
65044;DHT22;51617;48.158;16.464;2023-06-14T04:04:48;16.10;93.90
65044;DHT22;51617;48.158;16.464;2023-06-14T04:07:14;16.10;93.90
65044;DHT22;51617;48.158;16.464;2023-06-14T04:09:41;16.10;94.20
65044;DHT22;51617;48.158;16.464;2023-06-14T04:12:07;16.10;94.10
65044;DHT22;51617;48.158;16.464;2023-06-14T04:14:37;16.10;93.90
65044;DHT22;51617;48.158;16.464;2023-06-14T04:17:03;16.20;93.70
65044;DHT22;51617;48.158;16.464;2023-06-14T04:19:29;16.30;93.50
65044;DHT22;51617;48.158;16.464;2023-06-14T04:21:55;16.40;93.40
65044;DHT22;51617;48.158;16.464;2023-06-14T04:24:21;16.50;93.10
65044;DHT22;51617;48.158;16.464;2023-06-14T04:26:46;16.50;93.00
65044;DHT22;51617;48.158;16.464;2023-06-14T04:29:17;16.60;93.00
65044;DHT22;51617;48.158;16.464;2023-06-14T04:31:45;16.60;92.80
65044;DHT22;51617;48.158;16.464;2023-06-14T04:34:11;16.70;92.90
65044;DHT22;51617;48.158;16.464;2023-06-14T04:36:42;16.70;92.90
65044;DHT22;51617;48.158;16.464;2023-06-14T04:39:17;16.90;92.60
65044;DHT22;51617;48.158;16.464;2023-06-14T04:41:43;17.00;92.50
65044;DHT22;51617;48.158;16.464;2023-06-14T04:44:09;17.10;92.50
65044;DHT22;51617;48.158;16.464;2023-06-14T04:46:36;17.30;92.50
65044;DHT22;51617;48.158;16.464;2023-06-14T04:49:14;17.40;92.60
65044;DHT22;51617;48.158;16.464;2023-06-14T04:51:41;17.50;92.30
65044;DHT22;51617;48.158;16.464;2023-06-14T04:54:08;17.50;92.20
65044;DHT22;51617;48.158;16.464;2023-06-14T04:56:35;17.60;91.90
65044;DHT22;51617;48.158;16.464;2023-06-14T04:59:02;17.70;91.90
65044;DHT22;51617;48.158;16.464;2023-06-14T05:01:30;17.70;91.90
65044;DHT22;51617;48.158;16.464;2023-06-14T05:03:57;17.70;91.90
65044;DHT22;51617;48.158;16.464;2023-06-14T05:06:23;17.70;91.80
65044;DHT22;51617;48.158;16.464;2023-06-14T05:08:49;17.80;91.50
65044;DHT22;51617;48.158;16.464;2023-06-14T05:11:15;17.80;91.30
65044;DHT22;51617;48.158;16.464;2023-06-14T05:13:42;17.90;91.10
65044;DHT22;51617;48.158;16.464;2023-06-14T05:16:08;18.00;90.60
65044;DHT22;51617;48.158;16.464;2023-06-14T05:18:35;18.00;90.40
65044;DHT22;51617;48.158;16.464;2023-06-14T05:21:01;18.10;89.40
65044;DHT22;51617;48.158;16.464;2023-06-14T05:23:27;18.10;89.60
65044;DHT22;51617;48.158;16.464;2023-06-14T05:25:52;18.10;89.80
65044;DHT22;51617;48.158;16.464;2023-06-14T05:28:18;18.20;89.50
65044;DHT22;51617;48.158;16.464;2023-06-14T05:30:44;18.30;88.30
65044;DHT22;51617;48.158;16.464;2023-06-14T05:33:09;18.40;87.70
65044;DHT22;51617;48.158;16.464;2023-06-14T05:35:35;18.50;87.20
65044;DHT22;51617;48.158;16.464;2023-06-14T05:38:01;18.50;87.30
65044;DHT22;51617;48.158;16.464;2023-06-14T05:40:27;18.50;87.00
65044;DHT22;51617;48.158;16.464;2023-06-14T05:42:52;18.40;87.30
65044;DHT22;51617;48.158;16.464;2023-06-14T05:45:18;18.40;87.50
65044;DHT22;51617;48.158;16.464;2023-06-14T05:47:43;18.50;87.60
65044;DHT22;51617;48.158;16.464;2023-06-14T05:50:09;18.60;87.20
65044;DHT22;51617;48.158;16.464;2023-06-14T05:52:35;18.80;87.20
65044;DHT22;51617;48.158;16.464;2023-06-14T05:55:03;18.80;86.60
65044;DHT22;51617;48.158;16.464;2023-06-14T05:57:28;18.80;86.70
65044;DHT22;51617;48.158;16.464;2023-06-14T05:59:54;18.80;87.10
65044;DHT22;51617;48.158;16.464;2023-06-14T06:02:20;18.90;86.20
65044;DHT22;51617;48.158;16.464;2023-06-14T06:04:46;18.90;85.70
65044;DHT22;51617;48.158;16.464;2023-06-14T06:07:12;19.00;86.10
65044;DHT22;51617;48.158;16.464;2023-06-14T06:09:39;19.00;85.60
65044;DHT22;51617;48.158;16.464;2023-06-14T06:12:06;18.90;84.30
65044;DHT22;51617;48.158;16.464;2023-06-14T06:14:32;19.00;85.10
65044;DHT22;51617;48.158;16.464;2023-06-14T06:16:58;18.90;85.40
65044;DHT22;51617;48.158;16.464;2023-06-14T06:19:24;19.00;86.20
65044;DHT22;51617;48.158;16.464;2023-06-14T06:21:50;19.00;86.40
65044;DHT22;51617;48.158;16.464;2023-06-14T06:24:16;18.90;87.20
65044;DHT22;51617;48.158;16.464;2023-06-14T06:26:42;19.00;87.60
65044;DHT22;51617;48.158;16.464;2023-06-14T06:29:08;19.10;87.70
65044;DHT22;51617;48.158;16.464;2023-06-14T06:31:33;19.10;86.20
65044;DHT22;51617;48.158;16.464;2023-06-14T06:33:59;19.10;85.50
65044;DHT22;51617;48.158;16.464;2023-06-14T06:36:24;19.20;85.40
65044;DHT22;51617;48.158;16.464;2023-06-14T06:38:50;19.30;84.50
65044;DHT22;51617;48.158;16.464;2023-06-14T06:41:16;19.30;84.50
65044;DHT22;51617;48.158;16.464;2023-06-14T06:43:41;19.30;84.80
65044;DHT22;51617;48.158;16.464;2023-06-14T06:46:07;19.50;84.60
65044;DHT22;51617;48.158;16.464;2023-06-14T06:48:33;19.50;84.10
65044;DHT22;51617;48.158;16.464;2023-06-14T06:50:59;19.40;83.40
65044;DHT22;51617;48.158;16.464;2023-06-14T06:53:24;19.40;84.00
65044;DHT22;51617;48.158;16.464;2023-06-14T06:55:50;19.40;84.20
65044;DHT22;51617;48.158;16.464;2023-06-14T06:58:16;19.60;84.10
65044;DHT22;51617;48.158;16.464;2023-06-14T07:00:41;19.60;83.90
65044;DHT22;51617;48.158;16.464;2023-06-14T07:03:07;19.60;83.10
65044;DHT22;51617;48.158;16.464;2023-06-14T07:05:33;19.50;82.90
65044;DHT22;51617;48.158;16.464;2023-06-14T07:07:59;19.40;83.70
65044;DHT22;51617;48.158;16.464;2023-06-14T07:10:24;19.40;83.90
65044;DHT22;51617;48.158;16.464;2023-06-14T07:12:51;19.50;83.40
65044;DHT22;51617;48.158;16.464;2023-06-14T07:15:16;19.50;81.80
65044;DHT22;51617;48.158;16.464;2023-06-14T07:17:42;19.50;82.00
65044;DHT22;51617;48.158;16.464;2023-06-14T07:20:08;19.60;81.70
65044;DHT22;51617;48.158;16.464;2023-06-14T07:22:40;19.70;81.70
65044;DHT22;51617;48.158;16.464;2023-06-14T07:25:10;19.80;81.80
65044;DHT22;51617;48.158;16.464;2023-06-14T07:27:40;19.90;81.40
65044;DHT22;51617;48.158;16.464;2023-06-14T07:30:06;19.90;81.40
65044;DHT22;51617;48.158;16.464;2023-06-14T07:32:32;19.90;81.80
65044;DHT22;51617;48.158;16.464;2023-06-14T07:34:58;19.90;81.70
65044;DHT22;51617;48.158;16.464;2023-06-14T07:37:23;20.00;81.80
65044;DHT22;51617;48.158;16.464;2023-06-14T07:39:49;20.20;81.60
65044;DHT22;51617;48.158;16.464;2023-06-14T07:42:15;20.20;82.30
65044;DHT22;51617;48.158;16.464;2023-06-14T07:44:41;20.30;81.90
65044;DHT22;51617;48.158;16.464;2023-06-14T07:47:06;20.50;81.50
65044;DHT22;51617;48.158;16.464;2023-06-14T07:49:32;20.60;81.60
65044;DHT22;51617;48.158;16.464;2023-06-14T07:51:58;20.80;81.40
65044;DHT22;51617;48.158;16.464;2023-06-14T07:54:24;20.80;79.60
65044;DHT22;51617;48.158;16.464;2023-06-14T07:56:52;20.80;79.70
65044;DHT22;51617;48.158;16.464;2023-06-14T07:59:18;20.80;79.50
65044;DHT22;51617;48.158;16.464;2023-06-14T08:01:43;20.70;79.30
65044;DHT22;51617;48.158;16.464;2023-06-14T08:04:13;20.70;79.00
65044;DHT22;51617;48.158;16.464;2023-06-14T08:06:39;20.70;79.40
65044;DHT22;51617;48.158;16.464;2023-06-14T08:09:05;20.90;79.90
65044;DHT22;51617;48.158;16.464;2023-06-14T08:11:31;21.00;79.70
65044;DHT22;51617;48.158;16.464;2023-06-14T08:13:57;21.10;79.40
65044;DHT22;51617;48.158;16.464;2023-06-14T08:16:22;21.20;78.80
65044;DHT22;51617;48.158;16.464;2023-06-14T08:18:48;21.20;78.50
65044;DHT22;51617;48.158;16.464;2023-06-14T08:21:14;21.20;78.20
65044;DHT22;51617;48.158;16.464;2023-06-14T08:23:40;21.20;77.50
65044;DHT22;51617;48.158;16.464;2023-06-14T08:26:08;21.40;77.10
65044;DHT22;51617;48.158;16.464;2023-06-14T08:28:34;21.30;76.40
65044;DHT22;51617;48.158;16.464;2023-06-14T08:30:59;21.30;75.90
65044;DHT22;51617;48.158;16.464;2023-06-14T08:33:25;21.40;75.80
65044;DHT22;51617;48.158;16.464;2023-06-14T08:35:51;21.40;75.20
65044;DHT22;51617;48.158;16.464;2023-06-14T08:38:16;21.50;76.40
65044;DHT22;51617;48.158;16.464;2023-06-14T08:40:42;21.70;77.10
65044;DHT22;51617;48.158;16.464;2023-06-14T08:43:08;21.90;76.00
65044;DHT22;51617;48.158;16.464;2023-06-14T08:45:34;22.10;75.80
65044;DHT22;51617;48.158;16.464;2023-06-14T08:48:00;22.20;74.50
65044;DHT22;51617;48.158;16.464;2023-06-14T08:50:27;22.30;74.50
65044;DHT22;51617;48.158;16.464;2023-06-14T08:52:57;22.40;73.00
65044;DHT22;51617;48.158;16.464;2023-06-14T08:55:27;22.40;73.10
65044;DHT22;51617;48.158;16.464;2023-06-14T08:57:57;22.50;73.20
65044;DHT22;51617;48.158;16.464;2023-06-14T09:00:24;22.50;72.60
65044;DHT22;51617;48.158;16.464;2023-06-14T09:02:51;22.60;72.80
65044;DHT22;51617;48.158;16.464;2023-06-14T09:05:22;22.70;72.40
65044;DHT22;51617;48.158;16.464;2023-06-14T09:07:48;22.80;73.10
65044;DHT22;51617;48.158;16.464;2023-06-14T09:10:16;22.90;72.80
65044;DHT22;51617;48.158;16.464;2023-06-14T09:12:42;22.90;73.50
65044;DHT22;51617;48.158;16.464;2023-06-14T09:15:08;23.00;72.80
65044;DHT22;51617;48.158;16.464;2023-06-14T09:17:38;22.80;72.40
65044;DHT22;51617;48.158;16.464;2023-06-14T09:20:05;22.60;72.60
65044;DHT22;51617;48.158;16.464;2023-06-14T09:22:36;22.50;73.00
65044;DHT22;51617;48.158;16.464;2023-06-14T09:25:03;22.50;73.10
65044;DHT22;51617;48.158;16.464;2023-06-14T09:27:29;22.40;72.20
65044;DHT22;51617;48.158;16.464;2023-06-14T09:29:55;22.40;71.80
65044;DHT22;51617;48.158;16.464;2023-06-14T09:32:21;22.40;72.50
65044;DHT22;51617;48.158;16.464;2023-06-14T09:34:47;22.40;72.20
65044;DHT22;51617;48.158;16.464;2023-06-14T09:37:29;22.20;73.40
65044;DHT22;51617;48.158;16.464;2023-06-14T09:39:55;22.30;72.80
65044;DHT22;51617;48.158;16.464;2023-06-14T09:42:21;22.40;72.80
65044;DHT22;51617;48.158;16.464;2023-06-14T09:44:52;22.50;70.90
65044;DHT22;51617;48.158;16.464;2023-06-14T09:47:18;22.50;70.90
65044;DHT22;51617;48.158;16.464;2023-06-14T09:49:44;22.60;71.00
65044;DHT22;51617;48.158;16.464;2023-06-14T09:52:17;22.60;69.90
65044;DHT22;51617;48.158;16.464;2023-06-14T09:54:45;22.70;70.70
65044;DHT22;51617;48.158;16.464;2023-06-14T09:57:16;22.90;70.70
65044;DHT22;51617;48.158;16.464;2023-06-14T09:59:43;22.90;68.40
65044;DHT22;51617;48.158;16.464;2023-06-14T10:02:11;22.90;69.30
65044;DHT22;51617;48.158;16.464;2023-06-14T10:04:44;23.10;68.40
65044;DHT22;51617;48.158;16.464;2023-06-14T10:07:14;23.20;68.20
65044;DHT22;51617;48.158;16.464;2023-06-14T10:09:42;23.10;66.70
65044;DHT22;51617;48.158;16.464;2023-06-14T10:12:14;23.20;67.00
65044;DHT22;51617;48.158;16.464;2023-06-14T10:14:47;23.30;65.90
65044;DHT22;51617;48.158;16.464;2023-06-14T10:17:22;23.50;64.50
65044;DHT22;51617;48.158;16.464;2023-06-14T10:22:55;23.60;64.40
65044;DHT22;51617;48.158;16.464;2023-06-14T10:25:28;23.60;63.40
65044;DHT22;51617;48.158;16.464;2023-06-14T10:28:21;23.50;64.40
65044;DHT22;51617;48.158;16.464;2023-06-14T10:31:12;23.60;64.80
65044;DHT22;51617;48.158;16.464;2023-06-14T10:33:50;23.70;64.10
65044;DHT22;51617;48.158;16.464;2023-06-14T10:39:16;24.00;65.40
65044;DHT22;51617;48.158;16.464;2023-06-14T10:41:51;24.20;66.10
65044;DHT22;51617;48.158;16.464;2023-06-14T10:46:46;24.50;65.00
65044;DHT22;51617;48.158;16.464;2023-06-14T10:49:15;24.70;65.50
65044;DHT22;51617;48.158;16.464;2023-06-14T10:51:45;24.90;64.10
65044;DHT22;51617;48.158;16.464;2023-06-14T10:54:16;25.10;63.60
65044;DHT22;51617;48.158;16.464;2023-06-14T10:56:46;25.20;64.30
65044;DHT22;51617;48.158;16.464;2023-06-14T10:59:13;25.20;62.60
65044;DHT22;51617;48.158;16.464;2023-06-14T11:02:07;25.00;61.80
65044;DHT22;51617;48.158;16.464;2023-06-14T11:04:48;25.00;62.90
65044;DHT22;51617;48.158;16.464;2023-06-14T11:10:39;24.90;63.90
65044;DHT22;51617;48.158;16.464;2023-06-14T11:13:07;25.10;64.40
65044;DHT22;51617;48.158;16.464;2023-06-14T11:15:34;25.20;63.20
65044;DHT22;51617;48.158;16.464;2023-06-14T11:18:02;25.40;65.40
65044;DHT22;51617;48.158;16.464;2023-06-14T11:20:31;25.50;63.30
65044;DHT22;51617;48.158;16.464;2023-06-14T11:22:58;25.60;62.00
65044;DHT22;51617;48.158;16.464;2023-06-14T11:25:26;25.60;63.60
65044;DHT22;51617;48.158;16.464;2023-06-14T11:27:53;25.70;63.70
65044;DHT22;51617;48.158;16.464;2023-06-14T11:30:19;25.70;63.90
65044;DHT22;51617;48.158;16.464;2023-06-14T11:32:49;25.60;62.40
65044;DHT22;51617;48.158;16.464;2023-06-14T11:35:16;25.10;60.00
65044;DHT22;51617;48.158;16.464;2023-06-14T11:37:42;25.00;64.10
65044;DHT22;51617;48.158;16.464;2023-06-14T11:40:10;25.20;63.00
65044;DHT22;51617;48.158;16.464;2023-06-14T11:42:41;25.40;62.50
65044;DHT22;51617;48.158;16.464;2023-06-14T11:45:12;25.40;62.00
65044;DHT22;51617;48.158;16.464;2023-06-14T11:47:39;25.30;62.90
65044;DHT22;51617;48.158;16.464;2023-06-14T11:50:07;25.30;62.20
65044;DHT22;51617;48.158;16.464;2023-06-14T11:52:34;25.10;62.10
65044;DHT22;51617;48.158;16.464;2023-06-14T11:55:01;24.70;62.50
65044;DHT22;51617;48.158;16.464;2023-06-14T11:57:30;24.70;63.20
65044;DHT22;51617;48.158;16.464;2023-06-14T11:59:56;24.90;63.10
65044;DHT22;51617;48.158;16.464;2023-06-14T12:02:22;25.00;63.00
65044;DHT22;51617;48.158;16.464;2023-06-14T12:04:48;25.00;62.40
65044;DHT22;51617;48.158;16.464;2023-06-14T12:07:15;25.00;61.40
65044;DHT22;51617;48.158;16.464;2023-06-14T12:10:03;25.10;62.70
65044;DHT22;51617;48.158;16.464;2023-06-14T12:12:38;25.20;62.80
65044;DHT22;51617;48.158;16.464;2023-06-14T12:15:07;25.40;62.00
65044;DHT22;51617;48.158;16.464;2023-06-14T12:17:34;25.50;63.20
65044;DHT22;51617;48.158;16.464;2023-06-14T12:20:05;25.70;62.70
65044;DHT22;51617;48.158;16.464;2023-06-14T12:22:34;26.10;61.70
65044;DHT22;51617;48.158;16.464;2023-06-14T12:24:59;26.30;61.10
65044;DHT22;51617;48.158;16.464;2023-06-14T12:27:26;26.40;61.60
65044;DHT22;51617;48.158;16.464;2023-06-14T12:30:04;26.50;60.90
65044;DHT22;51617;48.158;16.464;2023-06-14T12:32:30;26.50;60.10
65044;DHT22;51617;48.158;16.464;2023-06-14T12:34:56;26.40;60.50
65044;DHT22;51617;48.158;16.464;2023-06-14T12:37:22;26.50;61.10
65044;DHT22;51617;48.158;16.464;2023-06-14T12:39:47;26.70;59.30
65044;DHT22;51617;48.158;16.464;2023-06-14T12:42:13;26.60;59.30
65044;DHT22;51617;48.158;16.464;2023-06-14T12:44:40;26.50;57.90
65044;DHT22;51617;48.158;16.464;2023-06-14T12:47:07;26.20;55.40
65044;DHT22;51617;48.158;16.464;2023-06-14T12:49:33;25.90;57.70
65044;DHT22;51617;48.158;16.464;2023-06-14T12:51:58;25.80;58.70
65044;DHT22;51617;48.158;16.464;2023-06-14T12:54:24;25.90;60.00
65044;DHT22;51617;48.158;16.464;2023-06-14T12:56:53;26.10;59.20
65044;DHT22;51617;48.158;16.464;2023-06-14T12:59:20;26.40;58.00
65044;DHT22;51617;48.158;16.464;2023-06-14T13:01:46;26.60;57.40
65044;DHT22;51617;48.158;16.464;2023-06-14T13:04:15;26.80;58.60
65044;DHT22;51617;48.158;16.464;2023-06-14T13:06:40;27.10;57.90
65044;DHT22;51617;48.158;16.464;2023-06-14T13:09:06;27.30;57.40
65044;DHT22;51617;48.158;16.464;2023-06-14T13:11:33;27.20;56.10
65044;DHT22;51617;48.158;16.464;2023-06-14T13:13:59;27.20;56.40
65044;DHT22;51617;48.158;16.464;2023-06-14T13:16:24;27.30;56.40
65044;DHT22;51617;48.158;16.464;2023-06-14T13:18:50;27.30;58.20
65044;DHT22;51617;48.158;16.464;2023-06-14T13:21:16;27.00;56.10
65044;DHT22;51617;48.158;16.464;2023-06-14T13:23:41;26.80;56.70
65044;DHT22;51617;48.158;16.464;2023-06-14T13:26:07;26.80;56.50
65044;DHT22;51617;48.158;16.464;2023-06-14T13:28:33;27.20;56.90
65044;DHT22;51617;48.158;16.464;2023-06-14T13:31:00;27.50;55.60
65044;DHT22;51617;48.158;16.464;2023-06-14T13:33:26;27.70;55.00
65044;DHT22;51617;48.158;16.464;2023-06-14T13:35:52;27.90;54.50
65044;DHT22;51617;48.158;16.464;2023-06-14T13:38:18;28.10;55.80
65044;DHT22;51617;48.158;16.464;2023-06-14T13:40:44;28.00;56.50
65044;DHT22;51617;48.158;16.464;2023-06-14T13:43:10;28.00;57.60
65044;DHT22;51617;48.158;16.464;2023-06-14T13:45:35;28.10;57.70
65044;DHT22;51617;48.158;16.464;2023-06-14T13:48:01;28.20;57.60
65044;DHT22;51617;48.158;16.464;2023-06-14T13:50:27;28.30;57.10
65044;DHT22;51617;48.158;16.464;2023-06-14T13:52:53;28.30;57.80
65044;DHT22;51617;48.158;16.464;2023-06-14T13:55:18;28.30;57.40
65044;DHT22;51617;48.158;16.464;2023-06-14T13:57:44;28.40;55.50
65044;DHT22;51617;48.158;16.464;2023-06-14T14:00:11;28.50;56.30
65044;DHT22;51617;48.158;16.464;2023-06-14T14:02:37;28.40;55.80
65044;DHT22;51617;48.158;16.464;2023-06-14T14:05:03;28.60;55.00
65044;DHT22;51617;48.158;16.464;2023-06-14T14:07:29;28.80;56.50
65044;DHT22;51617;48.158;16.464;2023-06-14T14:09:55;29.10;52.50
65044;DHT22;51617;48.158;16.464;2023-06-14T14:12:23;29.20;53.70
65044;DHT22;51617;48.158;16.464;2023-06-14T14:14:48;29.50;54.50
65044;DHT22;51617;48.158;16.464;2023-06-14T14:17:14;29.60;52.70
65044;DHT22;51617;48.158;16.464;2023-06-14T14:19:40;29.40;53.70
65044;DHT22;51617;48.158;16.464;2023-06-14T14:22:05;29.10;53.70
65044;DHT22;51617;48.158;16.464;2023-06-14T14:24:31;28.80;52.90
65044;DHT22;51617;48.158;16.464;2023-06-14T14:26:56;28.50;53.20
65044;DHT22;51617;48.158;16.464;2023-06-14T14:29:25;28.30;52.10
65044;DHT22;51617;48.158;16.464;2023-06-14T14:31:54;28.10;53.60
65044;DHT22;51617;48.158;16.464;2023-06-14T14:34:20;27.80;52.80
65044;DHT22;51617;48.158;16.464;2023-06-14T14:36:46;27.60;53.90
65044;DHT22;51617;48.158;16.464;2023-06-14T14:39:12;27.30;54.10
65044;DHT22;51617;48.158;16.464;2023-06-14T14:41:37;27.40;54.60
65044;DHT22;51617;48.158;16.464;2023-06-14T14:44:04;28.30;54.40
65044;DHT22;51617;48.158;16.464;2023-06-14T14:46:30;29.60;53.60
65044;DHT22;51617;48.158;16.464;2023-06-14T14:48:56;29.80;51.90
65044;DHT22;51617;48.158;16.464;2023-06-14T14:51:21;29.40;50.80
65044;DHT22;51617;48.158;16.464;2023-06-14T14:56:32;28.50;52.70
65044;DHT22;51617;48.158;16.464;2023-06-14T14:58:59;28.00;53.60
65044;DHT22;51617;48.158;16.464;2023-06-14T15:01:24;27.70;53.20
65044;DHT22;51617;48.158;16.464;2023-06-14T15:03:50;27.40;53.40
65044;DHT22;51617;48.158;16.464;2023-06-14T15:06:16;27.10;54.10
65044;DHT22;51617;48.158;16.464;2023-06-14T15:08:43;26.80;55.40
65044;DHT22;51617;48.158;16.464;2023-06-14T15:11:08;26.70;54.10
65044;DHT22;51617;48.158;16.464;2023-06-14T15:13:34;26.60;54.60
65044;DHT22;51617;48.158;16.464;2023-06-14T15:16:00;26.50;54.40
65044;DHT22;51617;48.158;16.464;2023-06-14T15:18:25;26.40;55.70
65044;DHT22;51617;48.158;16.464;2023-06-14T15:20:51;26.40;56.10
65044;DHT22;51617;48.158;16.464;2023-06-14T15:23:17;26.30;55.90
65044;DHT22;51617;48.158;16.464;2023-06-14T15:25:46;26.20;55.10
65044;DHT22;51617;48.158;16.464;2023-06-14T15:28:14;26.10;53.90
65044;DHT22;51617;48.158;16.464;2023-06-14T15:30:40;26.10;55.30
65044;DHT22;51617;48.158;16.464;2023-06-14T15:33:06;27.50;55.30